Time;durP1;ratioP1;P1;durP2;ratioP2;P2;SDS_P1;SDS_P2;PMS_P1;PMS_P2;Temp;Humidity;BMP_temperature;BMP_pressure;BME280_temperature;BME280_humidity;BME280_pressure;Samples;Min_cycle;Max_cycle;Signal;HPM_P1;HPM_P2
2022/02/22 00:01:00;;;;;;;13.62;5.85;;;;;;;1.87;60.84;95809.48;1781114;79;25824;-89
2022/02/22 00:03:27;;;;;;;13.53;6.70;;;;;;;1.88;60.86;95808.47;1780973;79;25780;-88
2022/02/22 00:05:53;;;;;;;17.10;6.87;;;;;;;1.90;60.92;95816.26;1780947;79;28369;-87
2022/02/22 00:08:20;;;;;;;16.02;7.30;;;;;;;1.85;60.92;95822.16;1780819;79;25829;-86
2022/02/22 00:10:46;;;;;;;16.93;7.10;;;;;;;1.78;60.97;95818.14;1780951;79;25678;-83
2022/02/22 00:13:13;;;;;;;22.52;9.00;;;;;;;1.72;61.09;95802.94;1780977;79;25750;-86
2022/02/22 00:15:40;;;;;;;23.85;9.40;;;;;;;1.64;61.23;95804.44;1781070;79;25607;-88
2022/02/22 00:18:06;;;;;;;27.70;11.33;;;;;;;1.61;61.33;95805.32;1781059;79;27575;-82
2022/02/22 00:20:33;;;;;;;27.95;11.48;;;;;;;1.59;61.41;95811.34;1780851;79;25751;-87
2022/02/22 00:23:01;;;;;;;26.45;11.57;;;;;;;1.53;61.43;95811.63;1780987;80;25701;-88
2022/02/22 00:25:28;;;;;;;32.98;12.55;;;;;;;1.47;61.57;95815.04;1780647;79;26528;-83
2022/02/22 00:27:54;;;;;;;29.65;12.63;;;;;;;1.42;61.70;95816.97;1781017;79;25732;-88
2022/02/22 00:30:21;;;;;;;28.07;12.03;;;;;;;1.39;61.80;95816.52;1781027;79;27292;-88
2022/02/22 00:32:47;;;;;;;30.77;12.50;;;;;;;1.38;61.88;95822.34;1780847;79;25671;-88
2022/02/22 00:35:14;;;;;;;32.48;12.73;;;;;;;1.33;61.94;95817.28;1780950;79;25765;-83
2022/02/22 00:37:41;;;;;;;27.58;11.05;;;;;;;1.20;62.04;95814.55;1780912;79;26308;-81
2022/02/22 00:40:10;;;;;;;31.35;11.95;;;;;;;1.19;62.31;95811.56;1780993;79;25782;-88
2022/02/22 00:42:37;;;;;;;28.77;12.80;;;;;;;1.16;62.49;95822.57;1787893;78;27433;-83
2022/02/22 00:45:05;;;;;;;42.48;16.62;;;;;;;1.09;62.58;95819.34;1789210;78;25653;-88
2022/02/22 00:47:32;;;;;;;47.25;18.70;;;;;;;1.00;62.69;95827.64;1789303;78;25822;-83
2022/02/22 00:49:58;;;;;;;49.38;18.48;;;;;;;0.95;62.92;95824.23;1789215;78;25732;-88
2022/02/22 00:52:25;;;;;;;43.25;17.90;;;;;;;0.91;63.16;95824.30;1789262;78;25244;-88
2022/02/22 00:54:52;;;;;;;37.67;15.68;;;;;;;0.87;63.39;95823.02;1789218;78;27445;-87
2022/02/22 00:57:19;;;;;;;35.23;15.08;;;;;;;0.84;63.54;95831.39;1789256;78;25673;-88
2022/02/22 00:59:46;;;;;;;19.77;8.23;;;;;;;0.84;63.69;95839.36;1789294;78;25731;-86
2022/02/22 01:02:12;;;;;;;14.60;6.72;;;;;;;0.86;63.79;95833.33;1790937;77;26295;-82
2022/02/22 01:04:39;;;;;;;13.20;5.58;;;;;;;0.98;63.95;95830.98;1789317;78;25705;-84
2022/02/22 01:07:06;;;;;;;7.10;2.83;;;;;;;1.15;64.00;95835.04;1789311;78;27579;-82
2022/02/22 01:09:33;;;;;;;6.62;2.20;;;;;;;1.31;63.74;95843.26;1789213;78;25741;-88
2022/02/22 01:11:59;;;;;;;5.25;2.62;;;;;;;1.56;63.67;95841.83;1789321;78;25730;-83
2022/02/22 01:14:26;;;;;;;6.50;2.20;;;;;;;1.77;63.44;95847.09;1789312;78;26526;-87
2022/02/22 01:16:52;;;;;;;7.92;2.72;;;;;;;1.98;63.28;95840.86;1789240;78;25739;-88
2022/02/22 01:19:19;;;;;;;7.20;2.27;;;;;;;2.15;63.07;95844.86;1789283;78;27587;-86
2022/02/22 01:21:46;;;;;;;6.75;2.02;;;;;;;2.31;62.90;95846.34;1788837;78;25313;-83
2022/02/22 01:24:12;;;;;;;8.30;2.52;;;;;;;2.44;62.75;95848.25;1789324;78;25722;-83
2022/02/22 01:26:39;;;;;;;7.60;2.55;;;;;;;2.54;62.57;95838.86;1788980;78;26508;-86
2022/02/22 01:29:05;;;;;;;8.23;2.87;;;;;;;2.67;62.42;95848.75;1789268;78;25781;-88
2022/02/22 01:31:32;;;;;;;4.85;1.98;;;;;;;2.75;62.32;95843.77;1789206;78;27583;-87
2022/02/22 01:33:58;;;;;;;5.80;2.12;;;;;;;2.84;62.12;95843.38;1789152;78;25677;-87
2022/02/22 01:36:26;;;;;;;7.37;2.42;;;;;;;2.93;61.99;95842.67;1789338;78;25785;-87
2022/02/22 01:38:53;;;;;;;11.12;1.90;;;;;;;3.01;61.89;95834.51;1789171;78;25769;-87
2022/02/22 01:41:22;;;;;;;5.62;2.10;;;;;;;3.07;61.78;95837.69;1787430;78;25702;-85
2022/02/22 01:43:50;;;;;;;6.08;2.22;;;;;;;3.12;61.71;95836.58;1780724;80;27414;-88
2022/02/22 01:46:16;;;;;;;11.45;2.90;;;;;;;3.19;61.57;95839.23;1780787;79;25655;-87
2022/02/22 01:48:44;;;;;;;8.53;2.62;;;;;;;3.24;61.52;95839.46;1780918;79;25710;-88
2022/02/22 01:51:11;;;;;;;7.08;2.50;;;;;;;3.28;61.41;95841.19;1780693;79;26140;-88
2022/02/22 01:53:38;;;;;;;5.60;2.17;;;;;;;3.33;61.37;95842.73;1780881;79;25809;-88
2022/02/22 01:56:07;;;;;;;6.67;2.60;;;;;;;3.37;61.32;95834.65;1780850;79;26902;-88
2022/02/22 01:58:34;;;;;;;8.55;2.37;;;;;;;3.39;61.20;95841.39;1780934;80;25620;-88
2022/02/22 02:01:01;;;;;;;5.92;2.45;;;;;;;3.43;61.20;95849.30;1781307;79;25806;-87
2022/02/22 02:03:28;;;;;;;6.05;1.92;;;;;;;3.44;61.17;95848.28;1782169;79;26333;-85
2022/02/22 02:05:55;;;;;;;7.65;2.58;;;;;;;3.48;61.12;95844.70;1781134;79;25777;-86
2022/02/22 02:08:23;;;;;;;5.62;1.80;;;;;;;3.52;61.09;95851.25;1780959;79;28127;-89
2022/02/22 02:10:49;;;;;;;7.60;2.35;;;;;;;3.53;61.08;95859.56;1780919;79;26090;-86
2022/02/22 02:13:16;;;;;;;8.45;2.22;;;;;;;3.55;61.04;95857.01;1781040;79;25720;-89
2022/02/22 02:15:43;;;;;;;5.72;2.20;;;;;;;3.58;61.00;95859.78;1781075;79;25642;-88
2022/02/22 02:18:09;;;;;;;10.65;2.35;;;;;;;3.59;60.97;95860.92;1781104;79;25785;-85
2022/02/22 02:20:36;;;;;;;5.85;2.00;;;;;;;3.61;61.02;95861.54;1780982;79;27425;-88
2022/02/22 02:23:02;;;;;;;9.25;2.05;;;;;;;3.63;61.04;95866.64;1780972;79;25741;-85
2022/02/22 02:25:29;;;;;;;6.60;2.33;;;;;;;3.62;61.03;95865.82;1780961;79;25769;-88
2022/02/22 02:27:56;;;;;;;7.35;1.90;;;;;;;3.62;61.06;95869.03;1781129;79;25890;-87
2022/02/22 02:30:22;;;;;;;4.35;1.87;;;;;;;3.62;61.14;95869.03;1780731;79;25800;-87
2022/02/22 02:32:49;;;;;;;5.97;2.12;;;;;;;3.65;61.17;95866.44;1781151;80;27521;-88
2022/02/22 02:35:15;;;;;;;5.45;1.90;;;;;;;3.64;61.14;95865.62;1781027;79;25667;-87
2022/02/22 02:37:42;;;;;;;4.92;2.00;;;;;;;3.63;61.21;95870.64;1781195;79;25706;-87
2022/02/22 02:40:11;;;;;;;6.75;1.82;;;;;;;3.64;61.24;95870.95;1809949;77;25815;-87
2022/02/22 02:42:43;;;;;;;7.40;2.40;;;;;;;3.64;61.26;95873.62;1812927;77;25661;-87
2022/02/22 02:45:11;;;;;;;7.62;2.10;;;;;;;3.64;61.33;95884.30;1813169;77;27452;-87
2022/02/22 02:47:38;;;;;;;8.20;2.00;;;;;;;3.64;61.38;95880.30;1812999;77;25691;-88
2022/02/22 02:50:07;;;;;;;7.60;2.30;;;;;;;3.61;61.42;95881.55;1813202;77;25686;-89
2022/02/22 02:52:34;;;;;;;6.10;2.33;;;;;;;3.62;61.47;95881.83;1813152;77;25681;-87
2022/02/22 02:55:01;;;;;;;6.92;2.27;;;;;;;3.62;61.53;95890.38;1813255;77;25721;-86
2022/02/22 02:57:28;;;;;;;4.95;1.90;;;;;;;3.62;61.56;95891.71;1813132;77;27612;-88
2022/02/22 02:59:55;;;;;;;8.10;2.00;;;;;;;3.61;61.62;95891.41;1813103;77;25688;-88
2022/02/22 03:02:22;;;;;;;6.75;2.00;;;;;;;3.63;61.75;95898.66;1813153;77;25729;-88
2022/02/22 03:04:48;;;;;;;5.00;2.00;;;;;;;3.63;61.81;95897.33;1813144;77;25752;-82
2022/02/22 03:07:15;;;;;;;6.35;2.02;;;;;;;3.62;61.80;95905.05;1812957;77;25563;-89
2022/02/22 03:09:42;;;;;;;4.78;2.27;;;;;;;3.62;61.86;95899.17;1813154;77;28104;-87
2022/02/22 03:12:09;;;;;;;5.15;2.17;;;;;;;3.61;61.84;95902.08;1813041;77;25877;-85
2022/02/22 03:14:35;;;;;;;5.22;1.98;;;;;;;3.61;62.01;95914.08;1813144;77;25725;-84
2022/02/22 03:17:02;;;;;;;5.83;2.05;;;;;;;3.60;61.99;95911.09;1813153;78;26557;-88
2022/02/22 03:19:29;;;;;;;5.42;2.22;;;;;;;3.60;62.07;95915.10;1813103;77;25787;-84
2022/02/22 03:21:55;;;;;;;6.03;1.90;;;;;;;3.59;62.13;95922.80;1813090;77;27330;-85
2022/02/22 03:24:22;;;;;;;6.60;2.40;;;;;;;3.58;62.19;95930.48;1812994;77;25801;-88
2022/02/22 03:26:49;;;;;;;5.87;1.98;;;;;;;3.56;62.30;95935.20;1813079;77;25773;-87
2022/02/22 03:29:15;;;;;;;7.20;2.10;;;;;;;3.56;62.43;95940.54;1812771;77;25764;-88
2022/02/22 03:31:42;;;;;;;10.08;2.25;;;;;;;3.58;62.44;95939.83;1779239;77;25770;-88
2022/02/22 03:34:08;;;;;;;4.05;1.82;;;;;;;3.56;62.43;95937.87;1813113;78;27831;-88
2022/02/22 03:36:35;;;;;;;6.62;2.20;;;;;;;3.57;62.50;95946.19;1812997;77;25745;-86
2022/02/22 03:39:01;;;;;;;5.78;1.67;;;;;;;3.56;62.60;95952.55;1813022;77;25709;-88
2022/02/22 03:41:28;;;;;;;6.12;2.42;;;;;;;3.58;62.67;95957.17;1813031;77;26485;-89
2022/02/22 03:43:54;;;;;;;5.22;2.02;;;;;;;3.56;62.69;95960.03;1821589;77;25728;-88
2022/02/22 03:46:21;;;;;;;8.83;2.58;;;;;;;3.58;62.74;95969.17;1822303;77;27636;-88
2022/02/22 03:48:48;;;;;;;11.78;3.33;;;;;;;3.59;62.83;95984.16;1822227;78;25747;-86
2022/02/22 03:51:14;;;;;;;7.03;2.92;;;;;;;3.59;62.92;95980.16;1822316;77;25777;-88
2022/02/22 03:53:41;;;;;;;5.75;2.17;;;;;;;3.59;63.05;95989.50;1822213;77;25721;-86
2022/02/22 03:56:07;;;;;;;7.17;3.22;;;;;;;3.60;63.06;95987.14;1822407;78;25716;-88
2022/02/22 03:58:34;;;;;;;10.82;3.12;;;;;;;3.60;63.21;95997.81;1822274;77;27418;-88
2022/02/22 04:01:01;;;;;;;6.50;3.02;;;;;;;3.60;63.25;96007.98;1822312;77;25654;-88
2022/02/22 04:03:27;;;;;;;6.92;3.17;;;;;;;3.62;63.38;96018.45;1822302;77;25650;-86
2022/02/22 04:05:54;;;;;;;6.97;2.77;;;;;;;3.64;63.48;96020.39;1822019;77;25726;-87
2022/02/22 04:08:20;;;;;;;6.40;3.15;;;;;;;3.61;63.50;96028.30;1822417;77;25747;-87
2022/02/22 04:10:47;;;;;;;10.82;4.15;;;;;;;3.59;63.54;96033.53;1822276;77;27551;-89
2022/02/22 04:13:14;;;;;;;10.70;3.02;;;;;;;3.56;63.66;96044.59;1822125;77;25630;-88
2022/02/22 04:15:40;;;;;;;11.50;4.00;;;;;;;3.53;63.97;96051.15;1822342;77;25657;-88
2022/02/22 04:18:07;;;;;;;4.87;2.85;;;;;;;3.50;64.11;96049.41;1822343;77;25828;-88
2022/02/22 04:20:33;;;;;;;11.10;3.52;;;;;;;3.49;64.17;96058.44;1822270;77;25648;-87
2022/02/22 04:23:00;;;;;;;12.10;3.90;;;;;;;3.43;64.72;96061.88;1822237;77;26874;-87
2022/02/22 04:25:26;;;;;;;6.20;2.80;;;;;;;3.43;64.83;96064.55;1822168;78;25716;-85
2022/02/22 04:27:53;;;;;;;7.00;3.25;;;;;;;3.38;65.03;96069.69;1822309;78;25720;-87
2022/02/22 04:30:19;;;;;;;13.18;4.40;;;;;;;3.34;65.11;96079.09;1822277;77;25892;-85
2022/02/22 04:32:46;;;;;;;6.95;3.47;;;;;;;3.31;65.46;96080.81;1822289;77;25727;-88
2022/02/22 04:35:13;;;;;;;7.83;3.27;;;;;;;3.26;65.76;96081.39;1822242;77;27496;-88
2022/02/22 04:37:39;;;;;;;6.35;3.58;;;;;;;3.24;65.96;96087.46;1822208;78;25720;-87
2022/02/22 04:40:07;;;;;;;9.05;2.47;;;;;;;3.24;66.27;96090.95;1821955;77;25630;-88
2022/02/22 04:42:33;;;;;;;11.43;3.02;;;;;;;3.23;66.21;96098.64;1819985;77;25720;-87
2022/02/22 04:45:00;;;;;;;3.90;2.17;;;;;;;3.22;66.56;96100.99;1812887;77;25665;-86
2022/02/22 04:47:27;;;;;;;3.58;1.85;;;;;;;3.22;66.72;96104.99;1813143;77;27522;-87
2022/02/22 04:49:53;;;;;;;3.87;1.92;;;;;;;3.23;66.49;96113.30;1812991;77;25765;-87
2022/02/22 04:52:20;;;;;;;5.10;1.80;;;;;;;3.17;66.68;96116.74;1813046;77;26336;-85
2022/02/22 04:54:46;;;;;;;2.55;1.40;;;;;;;3.17;67.03;96122.08;1812988;77;26394;-87
2022/02/22 04:57:13;;;;;;;2.67;1.65;;;;;;;3.15;66.79;96137.44;1813084;77;25717;-87
2022/02/22 04:59:39;;;;;;;2.02;1.32;;;;;;;3.06;67.17;96137.80;1813127;77;27247;-87
2022/02/22 05:02:06;;;;;;;3.58;1.80;;;;;;;3.03;67.37;96136.34;1812963;77;25684;-86
2022/02/22 05:04:33;;;;;;;3.00;2.08;;;;;;;3.04;67.67;96143.83;1813038;79;25819;-86
2022/02/22 05:07:00;;;;;;;3.92;1.55;;;;;;;3.04;67.59;96143.32;1812953;77;25773;-85
2022/02/22 05:09:26;;;;;;;2.35;1.52;;;;;;;3.00;67.79;96147.42;1813130;77;25697;-86
2022/02/22 05:11:53;;;;;;;2.90;1.85;;;;;;;3.01;67.84;96171.73;1813081;77;28050;-86
2022/02/22 05:14:19;;;;;;;2.92;2.30;;;;;;;3.00;68.14;96171.41;1812607;79;25816;-87
2022/02/22 05:16:46;;;;;;;4.42;3.40;;;;;;;2.99;67.95;96184.42;1813286;77;25687;-87
2022/02/22 05:19:12;;;;;;;4.10;2.77;;;;;;;2.95;68.07;96180.48;1789832;79;25829;-88
2022/02/22 05:21:41;;;;;;;2.30;1.90;;;;;;;2.89;68.00;96186.61;1781649;79;25738;-87
2022/02/22 05:24:08;;;;;;;4.33;2.87;;;;;;;2.84;67.90;96190.34;1780937;79;27565;-87
2022/02/22 05:26:36;;;;;;;4.62;3.12;;;;;;;2.76;67.85;96201.97;1780909;79;26422;-84
2022/02/22 05:29:02;;;;;;;3.27;2.50;;;;;;;2.73;67.90;96209.52;1781001;79;25291;-87
2022/02/22 05:31:29;;;;;;;4.37;2.80;;;;;;;2.68;67.92;96211.41;1780714;79;26382;-83
2022/02/22 05:33:57;;;;;;;6.78;4.80;;;;;;;2.68;68.10;96227.91;1780925;79;25629;-84
2022/02/22 05:36:24;;;;;;;8.35;4.78;;;;;;;2.62;68.11;96227.35;1780995;79;28328;-87
2022/02/22 05:38:50;;;;;;;8.68;4.47;;;;;;;2.61;68.06;96232.36;1780829;79;25752;-87
2022/02/22 05:41:20;;;;;;;5.85;4.00;;;;;;;2.60;68.17;96227.54;1781027;79;25295;-86
2022/02/22 05:43:48;;;;;;;11.00;6.00;;;;;;;2.60;68.21;96244.86;1780605;78;25764;-86
2022/02/22 05:46:14;;;;;;;59.67;31.95;;;;;;;2.61;68.04;96245.68;1780697;79;25785;-86
2022/02/22 05:48:41;;;;;;;11.78;6.20;;;;;;;2.62;67.94;96246.00;1781038;79;27458;-87
2022/02/22 05:51:09;;;;;;;6.65;4.70;;;;;;;2.62;67.70;96250.00;1780932;79;25765;-87
2022/02/22 05:53:37;;;;;;;4.70;3.20;;;;;;;2.60;67.59;96257.34;1780999;79;26491;-87
2022/02/22 05:56:04;;;;;;;2.83;2.10;;;;;;;2.58;67.46;96270.03;1781054;79;25736;-86
2022/02/22 05:58:31;;;;;;;8.83;4.72;;;;;;;2.59;67.31;96269.02;1781009;80;25677;-87
2022/02/22 06:00:57;;;;;;;6.03;3.87;;;;;;;2.62;67.32;96277.47;1780978;79;27332;-88
2022/02/22 06:03:24;;;;;;;10.60;8.25;;;;;;;2.65;67.18;96284.27;1780856;79;25945;-86
2022/02/22 06:05:50;;;;;;;12.03;6.35;;;;;;;2.61;67.06;96281.14;1780983;79;25697;-87
2022/02/22 06:08:17;;;;;;;63.58;31.15;;;;;;;2.58;66.93;96290.01;1781114;79;25789;-88
2022/02/22 06:10:44;;;;;;;52.80;27.30;;;;;;;2.60;66.79;96294.65;1781257;79;25650;-86
2022/02/22 06:13:11;;;;;;;120.70;62.95;;;;;;;2.63;66.72;96305.77;1781152;79;27327;-87
2022/02/22 06:15:37;;;;;;;73.45;37.30;;;;;;;2.65;66.60;96313.57;1781109;79;25686;-85
2022/02/22 06:18:04;;;;;;;22.20;11.83;;;;;;;2.66;66.46;96309.86;1781163;80;25844;-87
2022/02/22 06:20:32;;;;;;;6.87;3.95;;;;;;;2.62;66.30;96314.77;1781085;79;25712;-86
2022/02/22 06:22:59;;;;;;;13.43;9.58;;;;;;;2.58;66.26;96322.80;1781193;79;25733;-84
2022/02/22 06:25:26;;;;;;;12.53;8.65;;;;;;;2.58;66.22;96332.64;1781116;79;27500;-84
2022/02/22 06:27:54;;;;;;;19.62;15.43;;;;;;;2.57;66.16;96337.64;1781058;79;25750;-83
2022/02/22 06:30:24;;;;;;;10.13;7.05;;;;;;;2.58;66.11;96351.28;1781148;79;25725;-87
2022/02/22 06:32:51;;;;;;;11.97;8.18;;;;;;;2.57;65.87;96349.63;1781117;79;25785;-85
2022/02/22 06:35:20;;;;;;;7.17;4.08;;;;;;;2.54;65.83;96343.66;1781205;79;25768;-84
2022/02/22 06:37:46;;;;;;;3.92;2.47;;;;;;;2.53;65.69;96350.03;1781097;79;27510;-85
2022/02/22 06:40:13;;;;;;;8.88;4.87;;;;;;;2.57;65.54;96354.95;1781064;79;26035;-85
2022/02/22 06:42:40;;;;;;;5.85;4.65;;;;;;;2.58;65.42;96359.28;1780797;78;26456;-85
2022/02/22 06:45:09;;;;;;;6.12;3.40;;;;;;;2.61;65.34;96363.73;1789765;78;25856;-86
2022/02/22 06:47:41;;;;;;;10.55;6.87;;;;;;;2.63;65.24;96363.55;1790022;78;25788;-84
2022/02/22 06:50:11;;;;;;;10.55;8.10;;;;;;;2.63;65.06;96366.22;1790150;79;27288;-85
2022/02/22 06:52:39;;;;;;;7.75;3.72;;;;;;;2.63;64.97;96364.88;1789936;79;25658;-85
2022/02/22 06:55:09;;;;;;;6.05;3.05;;;;;;;2.68;64.97;96374.45;1789989;78;25219;-87
2022/02/22 06:57:35;;;;;;;6.97;3.33;;;;;;;2.69;64.91;96378.27;1790119;80;25818;-85
2022/02/22 07:00:07;;;;;;;10.58;4.20;;;;;;;2.72;64.85;96387.23;1790047;78;25717;-87
2022/02/22 07:02:34;;;;;;;11.60;5.17;;;;;;;2.72;64.73;96385.90;1790233;79;28031;-82
2022/02/22 07:05:00;;;;;;;10.63;4.42;;;;;;;2.71;64.69;96398.90;1789902;79;25670;-83
2022/02/22 07:07:27;;;;;;;7.30;3.08;;;;;;;2.72;64.59;96391.73;1790130;80;25952;-85
2022/02/22 07:09:55;;;;;;;5.33;1.80;;;;;;;2.73;64.58;96394.72;1790035;79;26453;-83
2022/02/22 07:12:22;;;;;;;3.58;1.77;;;;;;;2.74;64.56;96397.20;1789922;78;25794;-85
2022/02/22 07:14:48;;;;;;;8.83;2.90;;;;;;;2.76;64.51;96397.02;1789992;79;27403;-86
2022/02/22 07:17:15;;;;;;;6.35;2.10;;;;;;;2.80;64.47;96397.77;1789860;78;25694;-86
2022/02/22 07:19:41;;;;;;;15.20;5.28;;;;;;;2.85;64.40;96391.89;1790051;79;25472;-85
2022/02/22 07:22:08;;;;;;;12.35;4.62;;;;;;;2.89;64.33;96398.00;1789912;79;25812;-86
2022/02/22 07:24:35;;;;;;;4.92;2.47;;;;;;;2.94;64.35;96409.41;1790038;79;25235;-87
2022/02/22 07:27:02;;;;;;;10.00;2.42;;;;;;;2.97;64.17;96413.05;1790026;78;27535;-84
2022/02/22 07:29:30;;;;;;;5.58;2.37;;;;;;;3.00;64.20;96415.84;1789913;78;25737;-85
2022/02/22 07:31:56;;;;;;;11.73;4.40;;;;;;;3.05;64.34;96419.58;1790018;78;25652;-86
2022/02/22 07:34:23;;;;;;;18.92;8.23;;;;;;;3.10;64.12;96432.36;1790067;79;25829;-86
2022/02/22 07:36:50;;;;;;;8.25;3.00;;;;;;;3.13;64.13;96434.16;1789992;79;25747;-86
2022/02/22 07:39:17;;;;;;;7.87;2.87;;;;;;;3.17;64.17;96439.41;1789934;78;28312;-87
2022/02/22 07:41:44;;;;;;;5.15;2.30;;;;;;;3.14;64.00;96438.44;1789557;78;25724;-86
2022/02/22 07:44:11;;;;;;;7.87;3.08;;;;;;;3.15;64.08;96437.94;1789723;78;25697;-82
2022/02/22 07:46:38;;;;;;;8.15;3.72;;;;;;;3.19;64.04;96440.05;1789627;79;25810;-86
2022/02/22 07:49:06;;;;;;;7.60;3.70;;;;;;;3.24;63.93;96434.16;1789957;78;25701;-86
2022/02/22 07:51:32;;;;;;;7.03;3.20;;;;;;;3.32;64.00;96439.37;1789919;79;27479;-86
2022/02/22 07:53:59;;;;;;;8.45;3.22;;;;;;;3.40;63.92;96441.90;1789925;78;26239;-85
2022/02/22 07:56:25;;;;;;;17.55;6.78;;;;;;;3.46;63.88;96440.33;1789897;79;25717;-88
2022/02/22 07:58:52;;;;;;;16.48;5.58;;;;;;;3.53;63.91;96446.55;1789993;79;25887;-88
2022/02/22 08:01:19;;;;;;;17.12;6.72;;;;;;;3.59;63.71;96447.13;1789137;78;25641;-86
2022/02/22 08:03:45;;;;;;;15.45;6.85;;;;;;;3.65;63.64;96457.02;1789992;79;27579;-86
2022/02/22 08:06:13;;;;;;;10.58;5.22;;;;;;;3.71;63.60;96462.13;1789827;78;25930;-87
2022/02/22 08:08:41;;;;;;;13.22;6.42;;;;;;;3.72;63.50;96460.59;1789978;78;25879;-87
2022/02/22 08:11:07;;;;;;;16.87;6.53;;;;;;;3.78;63.50;96454.98;1789993;79;25740;-88
2022/02/22 08:13:34;;;;;;;9.05;4.05;;;;;;;3.82;63.38;96461.60;1789911;79;25610;-87
2022/02/22 08:16:01;;;;;;;11.18;4.35;;;;;;;3.83;63.27;96463.25;1790015;79;27570;-87
2022/02/22 08:18:27;;;;;;;7.53;3.85;;;;;;;3.84;63.20;96472.92;1789880;79;25966;-87
2022/02/22 08:20:54;;;;;;;9.05;5.03;;;;;;;3.88;63.26;96482.17;1790042;80;25219;-86
2022/02/22 08:23:20;;;;;;;14.80;5.95;;;;;;;3.91;63.15;96486.63;1789981;79;25665;-87
2022/02/22 08:25:47;;;;;;;13.95;6.15;;;;;;;3.94;63.11;96489.43;1790012;79;25695;-83
2022/02/22 08:28:13;;;;;;;12.75;5.12;;;;;;;4.01;63.01;96490.81;1790018;79;27429;-86
2022/02/22 08:30:40;;;;;;;11.45;5.70;;;;;;;4.05;62.92;96496.09;1789847;79;25770;-86
2022/02/22 08:33:08;;;;;;;5.70;2.37;;;;;;;4.08;63.02;96495.72;1789890;78;25749;-87
2022/02/22 08:35:35;;;;;;;3.95;1.72;;;;;;;4.10;62.66;96489.67;1790572;80;25777;-88
2022/02/22 08:38:02;;;;;;;3.58;1.77;;;;;;;4.12;62.41;96488.95;1791462;78;25677;-88
2022/02/22 08:40:29;;;;;;;6.35;2.05;;;;;;;4.17;62.32;96489.21;1790101;78;27360;-86
2022/02/22 08:42:55;;;;;;;6.92;2.17;;;;;;;4.23;62.30;96489.25;1789887;79;25781;-87
2022/02/22 08:45:24;;;;;;;4.15;1.62;;;;;;;4.33;62.14;96483.08;1782604;79;25657;-86
2022/02/22 08:47:51;;;;;;;6.78;2.30;;;;;;;4.43;62.14;96492.08;1781228;80;26034;-87
2022/02/22 08:50:17;;;;;;;6.35;1.90;;;;;;;4.48;61.73;96496.31;1781048;79;25657;-86
2022/02/22 08:52:44;;;;;;;3.25;1.12;;;;;;;4.48;61.61;96500.32;1781020;79;28354;-88
2022/02/22 08:55:13;;;;;;;3.08;1.10;;;;;;;4.50;61.45;96498.28;1780917;79;25661;-86
2022/02/22 08:57:40;;;;;;;4.50;1.62;;;;;;;4.53;61.27;96503.25;1780941;79;25776;-87
2022/02/22 09:00:10;;;;;;;3.95;1.37;;;;;;;4.54;61.18;96516.92;1781003;79;25817;-86
2022/02/22 09:02:40;;;;;;;3.92;1.60;;;;;;;4.57;61.27;96513.05;1781098;79;25737;-90
2022/02/22 09:05:09;;;;;;;3.75;1.32;;;;;;;4.59;61.21;96511.80;1780492;79;28220;-86
2022/02/22 09:07:36;;;;;;;4.12;2.00;;;;;;;4.59;61.11;96519.82;1781045;79;25748;-93
2022/02/22 09:10:04;;;;;;;7.85;2.58;;;;;;;4.60;61.21;96520.65;1781066;79;25807;-89
2022/02/22 09:12:32;;;;;;;7.05;2.12;;;;;;;4.59;60.98;96531.84;1781168;79;25737;-88
2022/02/22 09:14:58;;;;;;;4.97;1.87;;;;;;;4.52;61.04;96535.00;1780633;79;25778;-88
2022/02/22 09:17:25;;;;;;;8.50;3.70;;;;;;;4.52;61.03;96533.66;1781010;79;27321;-87
2022/02/22 09:19:52;;;;;;;7.12;2.17;;;;;;;4.52;61.02;96524.31;1780889;80;25774;-89
2022/02/22 09:22:18;;;;;;;5.10;2.40;;;;;;;4.56;61.00;96534.11;1780945;79;25735;-86
2022/02/22 09:24:45;;;;;;;5.50;2.67;;;;;;;4.60;60.98;96537.52;1781004;80;26586;-89
2022/02/22 09:27:12;;;;;;;3.95;2.10;;;;;;;4.63;60.90;96540.31;1781118;79;25675;-86
2022/02/22 09:29:38;;;;;;;4.70;2.30;;;;;;;4.63;60.88;96535.80;1781030;80;27336;-88
2022/02/22 09:32:06;;;;;;;4.42;1.75;;;;;;;4.65;60.88;96539.61;1780991;80;25827;-90
2022/02/22 09:34:32;;;;;;;4.65;1.90;;;;;;;4.67;60.90;96546.42;1781006;80;25711;-87
2022/02/22 09:37:03;;;;;;;3.58;1.57;;;;;;;4.69;60.72;96537.70;1781015;80;25696;-87
2022/02/22 09:39:27;;;;;;;4.37;1.40;;;;;;;4.57;60.80;96541.94;1780574;80;25742;-88
2022/02/22 09:41:54;;;;;;;2.92;1.80;;;;;;;4.62;60.86;96542.67;1780879;79;27495;-87
2022/02/22 09:44:21;;;;;;;3.10;1.52;;;;;;;4.64;60.88;96544.13;1782829;80;25701;-87
2022/02/22 09:46:49;;;;;;;2.33;1.30;;;;;;;4.65;60.91;96543.11;1789020;80;25762;-87
2022/02/22 09:49:15;;;;;;;5.35;1.80;;;;;;;4.66;60.79;96542.09;1789259;78;26279;-88
2022/02/22 09:51:42;;;;;;;7.45;1.87;;;;;;;4.64;60.68;96556.16;1789397;79;25617;-86
2022/02/22 09:54:09;;;;;;;5.22;2.00;;;;;;;4.63;60.66;96561.19;1789481;78;27995;-89
2022/02/22 09:56:44;;;;;;;5.87;2.17;;;;;;;4.63;60.75;96569.20;1770820;78;25748;-89
2022/02/22 09:59:12;;;;;;;4.30;2.12;;;;;;;4.56;60.86;96565.67;1805964;77;25625;-89
2022/02/22 10:01:41;;;;;;;6.00;3.67;;;;;;;4.57;61.06;96562.49;1789025;80;25715;-87
2022/02/22 10:04:08;;;;;;;10.88;4.80;;;;;;;4.62;61.13;96566.22;1788824;80;25265;-89
2022/02/22 10:06:35;;;;;;;26.27;15.53;;;;;;;4.64;61.08;96568.70;1788332;78;28137;-90
2022/02/22 10:09:03;;;;;;;21.77;13.03;;;;;;;4.58;61.24;96570.83;1788338;78;25738;-90
2022/02/22 10:11:32;;;;;;;21.60;14.10;;;;;;;4.64;61.32;96566.86;1788528;80;25873;-89
2022/02/22 10:14:02;;;;;;;7.50;4.10;;;;;;;4.70;61.21;96572.77;1788161;79;26643;-90
2022/02/22 10:16:40;;;;;;;5.87;3.20;;;;;;;4.74;61.08;96584.39;1789308;78;25663;-89
2022/02/22 10:19:07;;;;;;;6.67;2.85;;;;;;;4.78;61.09;96582.99;1789371;78;27354;-91
2022/02/22 10:21:42;;;;;;;13.98;6.62;;;;;;;4.85;61.11;96577.99;1789279;80;25507;-89
2022/02/22 10:24:15;;;;;;;19.20;9.78;;;;;;;4.87;61.16;96570.61;1789394;78;25829;-89
2022/02/22 10:26:42;;;;;;;10.03;5.28;;;;;;;4.93;60.95;96573.02;1789431;80;26485;-89
2022/02/22 10:29:24;;;;;;;8.38;4.50;;;;;;;4.96;60.85;96583.30;1789454;80;25685;-89
2022/02/22 10:31:50;;;;;;;6.80;2.95;;;;;;;5.04;60.94;96583.17;1789187;80;28412;-90
2022/02/22 10:34:17;;;;;;;4.58;1.62;;;;;;;5.17;60.80;96579.23;1789315;80;25720;-90
2022/02/22 10:36:50;;;;;;;5.97;2.50;;;;;;;5.24;60.55;96574.73;1789467;80;26202;-91
2022/02/22 10:39:19;;;;;;;4.95;2.62;;;;;;;5.32;60.38;96590.61;1789443;80;26314;-91
2022/02/22 10:41:48;;;;;;;3.65;2.02;;;;;;;5.38;60.39;96583.14;1789414;80;26286;-91
2022/02/22 10:44:34;;;;;;;2.52;1.67;;;;;;;5.39;60.21;96589.33;1788722;78;27358;-90
2022/02/22 10:47:00;;;;;;;4.12;2.22;;;;;;;5.34;60.01;96593.92;1791512;79;25323;-92
2022/02/22 10:49:37;;;;;;;3.62;1.77;;;;;;;5.32;59.96;96596.48;1808925;77;25758;-91
2022/02/22 10:52:07;;;;;;;5.12;2.30;;;;;;;5.35;59.89;96598.77;1811928;77;25737;-91
2022/02/22 10:54:34;;;;;;;2.75;1.80;;;;;;;5.39;59.86;96598.69;1781056;79;25667;-90
2022/02/22 10:57:02;;;;;;;7.30;4.00;;;;;;;5.42;59.60;96595.12;1781118;80;27348;-91
2022/02/22 10:59:30;;;;;;;5.50;2.30;;;;;;;5.42;59.52;96603.66;1781230;79;25641;-90
2022/02/22 11:01:58;;;;;;;4.20;1.75;;;;;;;5.41;59.27;96608.19;1781052;79;25772;-91
2022/02/22 11:04:25;;;;;;;4.70;2.27;;;;;;;5.43;59.31;96610.66;1781040;79;26315;-87
2022/02/22 11:06:51;;;;;;;4.85;2.37;;;;;;;5.45;59.13;96605.91;1781124;79;25815;-91
2022/02/22 11:09:20;;;;;;;5.40;2.45;;;;;;;5.47;59.01;96609.73;1780962;79;27465;-88
2022/02/22 11:11:54;;;;;;;4.15;2.02;;;;;;;5.52;59.00;96612.66;1748049;80;25843;-90
2022/02/22 11:14:31;;;;;;;1.77;1.05;;;;;;;5.57;58.75;96614.20;1780681;79;25866;-91
2022/02/22 11:17:02;;;;;;;4.28;2.10;;;;;;;5.61;58.43;96610.11;1781202;80;26477;-91
2022/02/22 11:19:38;;;;;;;6.83;3.80;;;;;;;5.70;58.43;96611.58;1781144;79;26220;-91
2022/02/22 11:22:17;;;;;;;5.97;4.22;;;;;;;5.74;58.30;96614.19;1781114;80;27356;-91
2022/02/22 11:24:51;;;;;;;9.33;5.45;;;;;;;5.76;58.16;96609.46;1781002;80;25685;-86
2022/02/22 11:27:30;;;;;;;3.95;2.02;;;;;;;5.80;57.90;96616.05;1781089;79;25539;-91
2022/02/22 11:30:12;;;;;;;3.83;1.70;;;;;;;5.84;57.74;96611.95;1780794;79;25755;-91
2022/02/22 11:32:55;;;;;;;2.85;1.55;;;;;;;5.86;57.58;96608.56;1781302;79;25832;-89
2022/02/22 11:35:23;;;;;;;4.05;2.40;;;;;;;5.89;57.52;96617.58;1780705;80;27450;-91
2022/02/22 11:37:51;;;;;;;5.80;2.15;;;;;;;5.91;57.39;96612.84;1780729;80;25942;-90
2022/02/22 11:40:31;;;;;;;3.77;1.85;;;;;;;5.93;57.21;96615.30;1781006;79;25725;-89